createdAt,value
2023-05-10T00:00:36.220Z,101476.88
2023-05-10T00:01:38.028Z,101487.34
2023-05-10T00:02:40.512Z,101481.94
2023-05-10T00:03:42.633Z,101473.97
2023-05-10T00:04:44.531Z,101482.97
2023-05-10T00:05:46.646Z,101483.97
2023-05-10T00:06:48.835Z,101473.81
2023-05-10T00:07:50.623Z,101486.84
2023-05-10T00:08:52.445Z,101483.28
2023-05-10T00:09:54.229Z,101485.16
2023-05-10T00:10:56.036Z,101484.28
2023-05-10T00:11:59.484Z,101483.47
2023-05-10T00:13:01.379Z,101483.47
2023-05-10T00:14:03.231Z,101483.94
2023-05-10T00:15:05.674Z,101485.28
2023-05-10T00:16:07.574Z,101486.47
2023-05-10T00:17:09.457Z,101482.06
2023-05-10T00:18:11.307Z,101485.63
2023-05-10T00:19:13.454Z,101474.25
2023-05-10T00:20:16.007Z,101490.31
2023-05-10T00:21:18.141Z,101487.78
2023-05-10T00:22:20.259Z,101491.34
2023-05-10T00:23:22.110Z,101487.94
2023-05-10T00:24:23.912Z,101485.25
2023-05-10T00:25:25.843Z,101485.56
2023-05-10T00:26:27.656Z,101490.78
2023-05-10T00:27:31.394Z,101487.25
2023-05-10T00:28:33.360Z,101482.03
2023-05-10T00:29:35.184Z,101489.28
2023-05-10T00:30:36.985Z,101489.28
2023-05-10T00:31:38.869Z,101489.41
2023-05-10T00:32:40.690Z,101485.91
2023-05-10T00:33:42.612Z,101491.28
2023-05-10T00:34:44.508Z,101488.75
2023-05-10T00:35:47.458Z,101485.22
2023-05-10T00:36:49.285Z,101492.44
2023-05-10T00:37:51.222Z,101479.97
2023-05-10T00:38:53.000Z,101481.84
2023-05-10T00:39:54.776Z,101482.84
2023-05-10T00:40:56.748Z,101486.53
2023-05-10T00:42:05.481Z,101487.38
2023-05-10T00:43:07.767Z,101481.84
2023-05-10T00:44:10.141Z,101467.59
2023-05-10T00:45:12.698Z,101479.47
2023-05-10T00:46:16.503Z,101483.16
2023-05-10T00:47:18.628Z,101474.69
2023-05-10T00:48:20.676Z,101486.00
2023-05-10T00:49:22.551Z,101486.16
2023-05-10T00:50:25.223Z,101487.88
2023-05-10T00:51:27.217Z,101481.75
2023-05-10T00:52:30.577Z,101476.38
2023-05-10T00:53:36.146Z,101486.31
2023-05-10T00:54:37.999Z,101494.41
2023-05-10T00:55:39.938Z,101490.84
2023-05-10T00:56:42.067Z,101490.84
2023-05-10T00:57:44.329Z,101488.34
2023-05-10T00:58:46.202Z,101486.63
2023-05-10T00:59:48.627Z,101487.47
2023-05-10T01:00:52.043Z,101481.03
2023-05-10T01:01:54.507Z,101484.94
2023-05-10T01:02:56.597Z,101491.16
2023-05-10T01:03:59.268Z,101491.50
2023-05-10T01:05:02.765Z,101478.50
2023-05-10T01:06:05.344Z,101485.09
2023-05-10T01:07:07.216Z,101493.19
2023-05-10T01:08:09.731Z,101484.41
2023-05-10T01:09:12.747Z,101481.88
2023-05-10T01:10:15.501Z,101482.72
2023-05-10T01:11:17.491Z,101487.09
2023-05-10T01:12:19.435Z,101488.09
2023-05-10T01:13:39.044Z,101484.09
2023-05-10T01:14:41.410Z,101485.09
2023-05-10T01:15:43.371Z,101485.28
2023-05-10T01:16:46.810Z,101487.28
2023-05-10T01:17:50.011Z,101484.72
2023-05-10T01:18:53.068Z,101483.91
2023-05-10T01:19:54.976Z,101483.03
2023-05-10T01:21:07.841Z,101481.34
2023-05-10T01:22:59.372Z,101482.47
2023-05-10T01:24:33.475Z,101480.97
2023-05-10T01:26:08.604Z,101471.19
2023-05-10T01:27:31.480Z,101478.91
2023-05-10T01:28:59.714Z,101485.47
2023-05-10T01:30:15.879Z,101482.94
2023-05-10T01:31:30.153Z,101487.47
2023-05-10T01:32:36.159Z,101481.72
2023-05-10T01:33:52.805Z,101488.44
2023-05-10T01:35:11.618Z,101486.28
2023-05-10T01:36:36.585Z,101488.97
2023-05-10T01:37:57.888Z,101488.28
2023-05-10T01:39:08.920Z,101493.66
2023-05-10T01:40:33.817Z,101492.44
2023-05-10T01:41:58.445Z,101491.81
2023-05-10T01:43:03.459Z,101494.69
2023-05-10T01:44:32.726Z,101486.06
2023-05-10T01:45:47.457Z,101487.75
2023-05-10T01:46:57.507Z,101483.50
2023-05-10T01:48:07.800Z,101486.66
2023-05-10T01:49:15.060Z,101494.75
2023-05-10T01:50:21.181Z,101494.03
2023-05-10T01:51:26.565Z,101495.19
2023-05-10T01:52:34.089Z,101494.50
2023-05-10T01:53:38.528Z,101498.06
2023-05-10T01:54:45.815Z,101494.69
2023-05-10T01:55:51.390Z,101498.19
2023-05-10T01:56:59.766Z,101491.13
2023-05-10T01:58:08.971Z,101487.91
2023-05-10T01:59:16.671Z,101497.38
2023-05-10T02:00:21.325Z,101501.91
2023-05-10T02:01:28.708Z,101493.81
2023-05-10T02:02:34.240Z,101504.78
2023-05-10T02:03:37.551Z,101500.38
2023-05-10T02:04:41.865Z,101496.00
2023-05-10T02:05:46.090Z,101500.69
2023-05-10T02:06:49.466Z,101502.53
2023-05-10T02:07:52.561Z,101499.00
2023-05-10T02:08:55.241Z,101497.47
2023-05-10T02:09:57.554Z,101491.25
2023-05-10T02:11:00.503Z,101487.00
2023-05-10T02:12:06.650Z,101501.00
2023-05-10T02:13:10.487Z,101493.75
2023-05-10T02:14:13.440Z,101505.41
2023-05-10T02:15:22.034Z,101501.16
2023-05-10T02:16:27.557Z,101497.47
2023-05-10T02:17:31.627Z,101491.06
2023-05-10T02:18:35.958Z,101501.16
2023-05-10T02:19:40.003Z,101494.94
2023-05-10T02:20:43.012Z,101502.03
2023-05-10T02:21:46.665Z,101497.63
2023-05-10T02:22:50.342Z,101492.38
2023-05-10T02:23:53.644Z,101498.63
2023-05-10T02:24:58.753Z,101465.09
2023-05-10T02:26:02.907Z,101500.59
2023-05-10T02:27:05.990Z,101506.00
2023-05-10T02:28:09.144Z,101506.00
2023-05-10T02:29:13.777Z,101501.59
2023-05-10T02:30:17.920Z,101510.56
2023-05-10T02:31:21.327Z,101509.69
2023-05-10T02:32:25.596Z,101507.16
2023-05-10T02:33:28.605Z,101497.22
2023-05-10T02:34:31.373Z,101502.59
2023-05-10T02:35:34.645Z,101498.22
2023-05-10T02:36:41.231Z,101500.91
2023-05-10T02:37:44.774Z,101499.09
2023-05-10T02:38:47.999Z,101481.31
2023-05-10T02:39:53.200Z,101498.41
2023-05-10T02:40:56.632Z,101504.63
2023-05-10T02:41:58.719Z,101493.84
2023-05-10T02:43:03.642Z,101494.00
2023-05-10T02:44:09.039Z,101495.84
2023-05-10T02:45:18.634Z,101491.31
2023-05-10T02:46:20.662Z,101493.31
2023-05-10T02:47:22.803Z,101501.09
2023-05-10T02:48:24.785Z,101499.53
2023-05-10T02:49:26.819Z,101504.94
2023-05-10T02:50:33.490Z,101500.72
2023-05-10T02:51:41.574Z,101496.16
2023-05-10T02:52:50.841Z,101499.16
2023-05-10T02:53:56.171Z,101492.47
2023-05-10T02:55:04.144Z,101504.94
2023-05-10T02:56:13.255Z,101499.72
2023-05-10T02:57:21.255Z,101498.03
2023-05-10T02:58:23.334Z,101504.94
2023-05-10T02:59:25.203Z,101509.63
2023-05-10T03:00:27.334Z,101505.25
2023-05-10T03:01:30.336Z,101497.34
2023-05-10T03:02:33.803Z,101495.66
2023-05-10T03:03:35.749Z,101502.72
2023-05-10T03:04:37.602Z,101502.84
2023-05-10T03:05:39.545Z,101498.47
2023-05-10T03:06:42.972Z,101501.16
2023-05-10T03:07:46.076Z,101497.09
2023-05-10T03:08:47.983Z,101503.84
2023-05-10T03:09:50.906Z,101498.41
2023-05-10T03:11:01.079Z,101499.66
2023-05-10T03:12:16.739Z,101506.41
2023-05-10T03:13:37.510Z,101498.72
2023-05-10T03:15:09.245Z,101505.94
2023-05-10T03:16:18.107Z,101502.94
2023-05-10T03:17:38.498Z,101501.78
2023-05-10T03:18:51.988Z,101507.63
2023-05-10T03:19:58.975Z,101508.63
2023-05-10T03:21:08.181Z,101500.03
2023-05-10T03:22:12.364Z,101512.63
2023-05-10T03:23:58.617Z,101518.25
2023-05-10T03:25:06.881Z,101513.69
2023-05-10T03:26:09.991Z,101514.88
2023-05-10T03:27:14.375Z,101508.25
2023-05-10T03:28:19.754Z,101513.25
2023-05-10T03:29:23.832Z,101509.56
2023-05-10T03:30:26.596Z,101516.81
2023-05-10T03:31:28.921Z,101510.72
2023-05-10T03:32:33.039Z,101514.41
2023-05-10T03:33:35.646Z,101509.00
2023-05-10T03:34:43.414Z,101514.41
2023-05-10T03:35:46.936Z,101510.72
2023-05-10T03:36:49.678Z,101516.41
2023-05-10T03:37:51.470Z,101513.56
2023-05-10T03:38:53.408Z,101518.94
2023-05-10T03:39:55.367Z,101514.56
2023-05-10T03:40:57.297Z,101517.25
2023-05-10T03:41:59.138Z,101522.63
2023-05-10T03:43:01.007Z,101523.63
2023-05-10T03:44:03.097Z,101517.41
2023-05-10T03:45:05.298Z,101521.78
2023-05-10T03:46:07.289Z,101508.94
2023-05-10T03:47:09.732Z,101515.56
2023-05-10T03:48:11.650Z,101529.03
2023-05-10T03:49:14.393Z,101522.63
2023-05-10T03:50:16.561Z,101520.94
2023-05-10T03:51:18.665Z,101519.94
2023-05-10T03:52:20.514Z,101525.34
2023-05-10T03:53:24.140Z,101522.63
2023-05-10T03:54:26.399Z,101519.09
2023-05-10T03:55:29.222Z,101527.03
2023-05-10T03:56:31.183Z,101522.63
2023-05-10T03:57:33.279Z,101532.41
2023-05-10T03:58:35.472Z,101530.72
2023-05-10T03:59:37.301Z,101528.84
2023-05-10T04:00:44.792Z,101529.72
2023-05-10T04:01:46.965Z,101526.88
2023-05-10T04:02:48.870Z,101527.03
2023-05-10T04:03:54.491Z,101505.41
2023-05-10T04:04:56.458Z,101519.94
2023-05-10T04:06:02.891Z,101519.25
2023-05-10T04:07:05.092Z,101520.50
2023-05-10T04:08:07.177Z,101527.72
2023-05-10T04:09:09.466Z,101521.50
2023-05-10T04:10:12.195Z,101516.69
2023-05-10T04:11:14.797Z,101528.59
2023-05-10T04:12:16.608Z,101525.03
2023-05-10T04:13:18.459Z,101521.34
2023-05-10T04:14:20.244Z,101524.03
2023-05-10T04:15:22.114Z,101531.97
2023-05-10T04:16:23.963Z,101524.88
2023-05-10T04:17:25.967Z,101532.78
2023-05-10T04:18:28.075Z,101522.34
2023-05-10T04:19:31.296Z,101533.66
2023-05-10T04:20:33.901Z,101530.78
2023-05-10T04:21:35.704Z,101527.09
2023-05-10T04:22:37.599Z,101528.78
2023-05-10T04:23:39.492Z,101535.03
2023-05-10T04:24:41.450Z,101538.56
2023-05-10T04:25:43.787Z,101531.34
2023-05-10T04:26:45.660Z,101539.25
2023-05-10T04:27:47.512Z,101537.25
2023-05-10T04:28:49.315Z,101525.72
2023-05-10T04:29:51.628Z,101535.19
2023-05-10T04:30:53.486Z,101538.94
2023-05-10T04:31:57.630Z,101537.94
2023-05-10T04:32:59.473Z,101534.09
2023-05-10T04:34:01.303Z,101534.09
2023-05-10T04:35:05.731Z,101540.31
2023-05-10T04:36:07.829Z,101532.09
2023-05-10T04:37:09.733Z,101532.94
2023-05-10T04:38:11.547Z,101531.09
2023-05-10T04:39:14.807Z,101529.22
2023-05-10T04:40:16.862Z,101535.47
2023-05-10T04:41:18.794Z,101530.97
2023-05-10T04:42:20.650Z,101538.03
2023-05-10T04:43:22.506Z,101526.03
2023-05-10T04:44:24.350Z,101531.78
2023-05-10T04:45:26.255Z,101532.66
2023-05-10T04:46:28.037Z,101539.72
2023-05-10T04:47:29.949Z,101534.34
2023-05-10T04:48:31.875Z,101536.03
2023-05-10T04:49:33.632Z,101534.16
2023-05-10T04:50:35.402Z,101537.56
2023-05-10T04:51:37.209Z,101537.72
2023-05-10T04:52:38.982Z,101526.94
2023-05-10T04:53:41.856Z,101540.25
2023-05-10T04:54:44.765Z,101535.72
2023-05-10T04:55:47.369Z,101537.41
2023-05-10T04:56:49.335Z,101530.16
2023-05-10T04:57:51.371Z,101534.72
2023-05-10T04:58:53.132Z,101533.72
2023-05-10T04:59:54.908Z,101532.84
2023-05-10T05:00:56.691Z,101529.16
2023-05-10T05:01:58.542Z,101530.03
2023-05-10T05:03:00.727Z,101525.47
2023-05-10T05:04:02.730Z,101526.63
2023-05-10T05:05:04.795Z,101532.72
2023-05-10T05:06:06.982Z,101527.16
2023-05-10T05:07:08.772Z,101532.53
2023-05-10T05:08:10.613Z,101525.63
2023-05-10T05:09:12.402Z,101530.53
2023-05-10T05:10:14.367Z,101523.78
2023-05-10T05:11:16.282Z,101534.78
2023-05-10T05:12:18.072Z,101526.53
2023-05-10T05:13:20.173Z,101516.38
2023-05-10T05:14:23.309Z,101533.16
2023-05-10T05:15:25.166Z,101532.16
2023-05-10T05:16:27.493Z,101536.41
2023-05-10T05:17:31.533Z,101532.72
2023-05-10T05:18:33.592Z,101529.41
2023-05-10T05:19:35.347Z,101502.13
2023-05-10T05:20:37.323Z,101531.59
2023-05-10T05:21:39.650Z,101533.16
2023-05-10T05:22:41.516Z,101528.31
2023-05-10T05:23:43.531Z,101522.59
2023-05-10T05:24:46.048Z,101526.66
2023-05-10T05:25:47.945Z,101524.47
2023-05-10T05:26:49.924Z,101526.03
2023-05-10T05:27:51.778Z,101525.53
2023-05-10T05:28:55.599Z,101520.66
2023-05-10T05:29:58.006Z,101525.41
2023-05-10T05:30:59.761Z,101526.09
2023-05-10T05:32:01.711Z,101519.38
2023-05-10T05:33:03.678Z,101524.44
2023-05-10T05:34:05.523Z,101513.34
2023-05-10T05:35:07.759Z,101511.31
2023-05-10T05:36:10.091Z,101523.50
2023-05-10T05:37:19.506Z,101521.31
2023-05-10T05:38:21.275Z,101518.16
2023-05-10T05:39:23.441Z,101526.94
2023-05-10T05:40:25.295Z,101516.00
2023-05-10T05:41:27.102Z,101519.22
2023-05-10T05:42:29.103Z,101519.91
2023-05-10T05:43:30.982Z,101520.59
2023-05-10T05:44:32.893Z,101523.97
2023-05-10T05:45:34.868Z,101523.50
2023-05-10T05:46:36.695Z,101526.00
2023-05-10T05:47:38.545Z,101527.69
2023-05-10T05:48:40.553Z,101523.84
2023-05-10T05:49:42.370Z,101518.25
2023-05-10T05:50:44.191Z,101520.81
2023-05-10T05:51:46.239Z,101514.22
2023-05-10T05:52:47.999Z,101526.72
2023-05-10T05:53:49.770Z,101522.00
2023-05-10T05:54:51.614Z,101521.03
2023-05-10T05:55:58.881Z,101512.91
2023-05-10T05:57:01.758Z,101518.00
2023-05-10T05:58:04.033Z,101513.28
2023-05-10T05:59:05.904Z,101513.28
2023-05-10T06:00:08.901Z,101522.06
2023-05-10T06:01:16.817Z,101523.41
2023-05-10T06:02:18.698Z,101521.72
2023-05-10T06:03:21.136Z,101518.34
2023-05-10T06:04:23.318Z,101525.94
2023-05-10T06:05:25.123Z,101523.41
2023-05-10T06:06:26.965Z,101520.53
2023-05-10T06:07:28.878Z,101517.69
2023-05-10T06:08:30.679Z,101519.50
2023-05-10T06:09:32.481Z,101524.59
2023-05-10T06:10:34.624Z,101517.34
2023-05-10T06:11:36.801Z,101520.88
2023-05-10T06:12:38.911Z,101506.53
2023-05-10T06:13:40.844Z,101513.63
2023-05-10T06:14:42.901Z,101517.00
2023-05-10T06:15:44.659Z,101506.88
2023-05-10T06:16:46.467Z,101518.69
2023-05-10T06:17:50.192Z,101517.69
2023-05-10T06:18:52.230Z,101517.00
2023-05-10T06:19:54.221Z,101523.75
2023-05-10T06:20:55.996Z,101523.75
2023-05-10T06:21:57.762Z,101522.06
2023-05-10T06:22:59.803Z,101519.38
2023-05-10T06:24:01.890Z,101513.81
2023-05-10T06:25:03.902Z,101511.97
2023-05-10T06:26:05.765Z,101520.91
2023-05-10T06:27:07.710Z,101517.22
2023-05-10T06:28:09.500Z,101518.03
2023-05-10T06:29:11.285Z,101518.03
2023-05-10T06:30:14.487Z,101518.38
2023-05-10T06:31:17.081Z,101514.31
2023-05-10T06:32:19.056Z,101514.66
2023-05-10T06:33:20.844Z,101524.13
2023-05-10T06:34:22.623Z,101525.13
2023-05-10T06:35:24.525Z,101524.97
2023-05-10T06:36:27.467Z,101519.56
2023-05-10T06:37:29.253Z,101523.97
2023-05-10T06:38:31.083Z,101518.22
2023-05-10T06:39:32.923Z,101514.66
2023-05-10T06:40:34.844Z,101519.38
2023-05-10T06:41:36.633Z,101525.66
2023-05-10T06:42:39.022Z,101522.94
2023-05-10T06:43:42.283Z,101495.41
2023-05-10T06:44:44.554Z,101527.34
2023-05-10T06:45:46.333Z,101528.16
2023-05-10T06:46:48.215Z,101527.34
2023-05-10T06:47:50.161Z,101532.75
2023-05-10T06:48:51.968Z,101528.16
2023-05-10T06:49:54.027Z,101538.97
2023-05-10T06:50:55.826Z,101527.16
2023-05-10T06:51:57.673Z,101529.84
2023-05-10T06:52:59.541Z,101531.88
2023-05-10T06:54:01.290Z,101526.16
2023-05-10T06:55:05.406Z,101530.88
2023-05-10T06:56:07.566Z,101526.16
2023-05-10T06:57:19.512Z,101528.69
2023-05-10T06:58:31.080Z,101529.91
2023-05-10T06:59:33.108Z,101529.19
2023-05-10T07:00:35.044Z,101527.50
2023-05-10T07:01:36.894Z,101530.19
2023-05-10T07:02:38.928Z,101525.81
2023-05-10T07:03:41.537Z,101531.22
2023-05-10T07:04:43.541Z,101520.41
2023-05-10T07:05:45.473Z,101527.50
2023-05-10T07:06:50.785Z,101515.53
2023-05-10T07:07:52.717Z,101524.66
2023-05-10T07:08:54.515Z,101514.84
2023-05-10T07:09:57.612Z,101525.66
2023-05-10T07:11:08.088Z,101520.41
2023-05-10T07:12:11.629Z,101523.53
2023-05-10T07:13:14.739Z,101524.34
2023-05-10T07:14:16.775Z,101522.66
2023-05-10T07:15:18.940Z,101520.06
2023-05-10T07:16:21.026Z,101521.81
2023-05-10T07:17:22.944Z,101521.81
2023-05-10T07:18:25.989Z,101518.28
2023-05-10T07:19:27.816Z,101525.22
2023-05-10T07:20:29.688Z,101522.50
2023-05-10T07:21:32.062Z,101522.50
2023-05-10T07:22:34.115Z,101521.50
2023-05-10T07:23:35.871Z,101524.19
2023-05-10T07:24:37.654Z,101517.78
2023-05-10T07:25:39.449Z,101519.63
2023-05-10T07:26:41.218Z,101517.78
2023-05-10T07:27:43.024Z,101519.47
2023-05-10T07:28:45.056Z,101519.47
2023-05-10T07:29:46.970Z,101517.78
2023-05-10T07:30:49.085Z,101516.78
2023-05-10T07:31:51.253Z,101520.16
2023-05-10T07:32:53.184Z,101523.00
2023-05-10T07:33:55.036Z,101507.31
2023-05-10T07:34:56.808Z,101519.13
2023-05-10T07:35:58.745Z,101518.94
2023-05-10T07:37:00.643Z,101519.13
2023-05-10T07:38:02.954Z,101524.53
2023-05-10T07:39:04.897Z,101514.75
2023-05-10T07:40:07.882Z,101533.31
2023-05-10T07:41:09.661Z,101529.59
2023-05-10T07:42:11.424Z,101533.13
2023-05-10T07:43:13.216Z,101535.00
2023-05-10T07:44:15.058Z,101500.16
2023-05-10T07:45:17.374Z,101529.41
2023-05-10T07:46:20.797Z,101534.81
2023-05-10T07:47:22.688Z,101540.91
2023-05-10T07:48:24.558Z,101529.41
2023-05-10T07:49:26.954Z,101532.97
2023-05-10T07:50:28.885Z,101532.97
2023-05-10T07:51:30.816Z,101547.16
2023-05-10T07:52:32.563Z,101533.81
2023-05-10T07:53:34.376Z,101527.91
2023-05-10T07:54:36.408Z,101536.34
2023-05-10T07:55:38.174Z,101541.75
2023-05-10T07:56:46.487Z,101531.28
2023-05-10T07:57:48.310Z,101535.16
2023-05-10T07:58:50.352Z,101531.28
2023-05-10T07:59:52.149Z,101534.34
2023-05-10T08:00:53.956Z,101538.06
2023-05-10T08:01:55.897Z,101540.75
2023-05-10T08:02:58.174Z,101539.75
2023-05-10T08:04:00.136Z,101540.75
2023-05-10T08:05:02.102Z,101538.72
2023-05-10T08:06:04.496Z,101539.75
2023-05-10T08:07:06.394Z,101529.75
2023-05-10T08:08:08.188Z,101536.03
2023-05-10T08:09:10.535Z,101534.16
2023-05-10T08:10:12.670Z,101536.84
2023-05-10T08:11:15.011Z,101537.72
2023-05-10T08:12:16.817Z,101532.78
2023-05-10T08:13:18.577Z,101538.72
2023-05-10T08:14:20.775Z,101536.84
2023-05-10T08:15:22.680Z,101533.13
2023-05-10T08:16:24.617Z,101542.09
2023-05-10T08:17:26.612Z,101534.00
2023-05-10T08:18:28.568Z,101532.31
2023-05-10T08:19:30.674Z,101533.13
2023-05-10T08:20:32.749Z,101530.28
2023-05-10T08:21:34.595Z,101529.59
2023-05-10T08:22:36.808Z,101521.50
2023-05-10T08:23:38.737Z,101539.22
2023-05-10T08:24:42.895Z,101523.88
2023-05-10T08:25:44.737Z,101526.56
2023-05-10T08:26:46.616Z,101525.72
2023-05-10T08:27:48.379Z,101511.84
2023-05-10T08:28:50.180Z,101526.56
2023-05-10T08:29:51.982Z,101536.34
2023-05-10T08:30:53.769Z,101531.97
2023-05-10T08:31:55.942Z,101529.28
2023-05-10T08:32:57.982Z,101532.84
2023-05-10T08:33:59.888Z,101525.56
2023-05-10T08:35:01.786Z,101537.03
2023-05-10T08:36:03.701Z,101536.34
2023-05-10T08:37:05.784Z,101539.06
2023-05-10T08:38:07.578Z,101537.03
2023-05-10T08:39:19.221Z,101537.03
2023-05-10T08:40:29.321Z,101539.06
2023-05-10T08:41:34.340Z,101525.88
2023-05-10T08:42:38.874Z,101525.88
2023-05-10T08:43:42.579Z,101531.28
2023-05-10T08:44:44.513Z,101535.00
2023-05-10T08:45:48.022Z,101515.75
2023-05-10T08:46:54.323Z,101532.31
2023-05-10T08:47:56.415Z,101532.16
2023-05-10T08:49:01.008Z,101532.31
2023-05-10T08:50:04.016Z,101530.28
2023-05-10T08:51:06.288Z,101532.97
2023-05-10T08:52:09.333Z,101537.56
2023-05-10T08:53:13.058Z,101530.47
2023-05-10T08:54:15.683Z,101531.63
2023-05-10T08:55:18.051Z,101530.97
2023-05-10T08:56:21.388Z,101532.97
2023-05-10T08:57:23.593Z,101527.91
2023-05-10T08:58:26.120Z,101539.25
2023-05-10T08:59:28.642Z,101535.69
2023-05-10T09:00:31.265Z,101527.59
2023-05-10T09:01:33.869Z,101538.38
2023-05-10T09:02:37.961Z,101538.38
2023-05-10T09:03:40.128Z,101532.97
2023-05-10T09:04:42.228Z,101537.38
2023-05-10T09:05:45.799Z,101540.06
2023-05-10T09:06:47.637Z,101542.78
2023-05-10T09:07:49.531Z,101534.66
2023-05-10T09:08:51.888Z,101534.00
2023-05-10T09:09:55.372Z,101531.16
2023-05-10T09:10:57.536Z,101535.53
2023-05-10T09:11:59.442Z,101539.06
2023-05-10T09:13:01.797Z,101524.53
2023-05-10T09:14:03.777Z,101539.06
2023-05-10T09:15:08.089Z,101534.66
2023-05-10T09:16:21.097Z,101537.38
2023-05-10T09:17:25.507Z,101536.03
2023-05-10T09:18:28.199Z,101537.91
2023-05-10T09:19:30.302Z,101549.72
2023-05-10T09:20:32.215Z,101537.56
2023-05-10T09:21:37.706Z,101541.75
2023-05-10T09:22:39.555Z,101538.06
2023-05-10T09:23:46.729Z,101539.06
2023-05-10T09:25:07.801Z,101543.97
2023-05-10T09:26:09.605Z,101542.78
2023-05-10T09:27:11.433Z,101546.69
2023-05-10T09:28:13.528Z,101544.13
2023-05-10T09:29:17.308Z,101542.44
2023-05-10T09:30:31.107Z,101537.72
2023-05-10T09:31:59.205Z,101543.97
2023-05-10T09:33:01.884Z,101538.72
2023-05-10T09:34:03.984Z,101531.28
2023-05-10T09:35:09.988Z,101548.53
2023-05-10T09:36:12.241Z,101550.22
2023-05-10T09:37:14.492Z,101541.44
2023-05-10T09:38:16.412Z,101540.41
2023-05-10T09:39:18.991Z,101539.59
2023-05-10T09:40:26.072Z,101537.91
2023-05-10T09:41:29.117Z,101531.81
2023-05-10T09:42:31.014Z,101531.16
2023-05-10T09:43:39.217Z,101538.72
2023-05-10T09:44:42.009Z,101544.81
2023-05-10T09:45:44.097Z,101536.69
2023-05-10T09:46:50.348Z,101542.28
2023-05-10T09:47:52.601Z,101551.91
2023-05-10T09:48:54.665Z,101542.09
2023-05-10T09:49:58.905Z,101546.84
2023-05-10T09:51:00.683Z,101544.81
2023-05-10T09:52:04.779Z,101536.03
2023-05-10T09:53:07.793Z,101539.41
2023-05-10T09:54:11.064Z,101542.09
2023-05-10T09:55:13.200Z,101522.19
2023-05-10T09:56:33.590Z,101536.69
2023-05-10T09:57:35.443Z,101539.59
2023-05-10T09:58:40.635Z,101533.84
2023-05-10T09:59:44.450Z,101536.34
2023-05-10T10:00:48.846Z,101539.06
2023-05-10T10:01:56.742Z,101539.91
2023-05-10T10:03:00.375Z,101534.31
2023-05-10T10:04:07.617Z,101528.25
2023-05-10T10:05:10.266Z,101531.63
2023-05-10T10:06:26.405Z,101537.03
2023-05-10T10:07:31.749Z,101534.69
2023-05-10T10:08:33.698Z,101536.72
2023-05-10T10:09:36.397Z,101534.19
2023-05-10T10:10:39.938Z,101531.47
2023-05-10T10:11:42.510Z,101535.88
2023-05-10T10:12:45.636Z,101533.31
2023-05-10T10:13:47.466Z,101529.63
2023-05-10T10:14:51.320Z,101534.03
2023-05-10T10:15:55.784Z,101531.47
2023-05-10T10:17:07.485Z,101528.44
2023-05-10T10:18:15.775Z,101530.97
2023-05-10T10:19:19.446Z,101527.25
2023-05-10T10:20:23.397Z,101521.00
2023-05-10T10:21:25.463Z,101515.78
2023-05-10T10:22:27.260Z,101527.25
2023-05-10T10:23:29.034Z,101529.28
2023-05-10T10:24:30.972Z,101530.97
2023-05-10T10:25:33.097Z,101539.09
2023-05-10T10:26:37.425Z,101537.22
2023-05-10T10:27:54.563Z,101528.09
2023-05-10T10:29:14.223Z,101530.28
2023-05-10T10:30:36.517Z,101523.34
2023-05-10T10:32:01.450Z,101522.84
2023-05-10T10:33:51.104Z,101517.28
2023-05-10T10:34:53.344Z,101521.50
2023-05-10T10:35:56.614Z,101517.78
2023-05-10T10:37:04.672Z,101493.47
2023-05-10T10:38:09.138Z,101523.69
2023-05-10T10:39:11.959Z,101517.44
2023-05-10T10:40:33.568Z,101504.28
2023-05-10T10:41:57.846Z,101520.97
2023-05-10T10:43:26.798Z,101518.97
2023-05-10T10:44:49.514Z,101514.75
2023-05-10T10:46:11.158Z,101523.19
2023-05-10T10:47:14.158Z,101513.72
2023-05-10T10:48:24.144Z,101523.19
2023-05-10T10:49:26.232Z,101510.84
2023-05-10T10:50:28.285Z,101508.31
2023-05-10T10:51:32.233Z,101508.66
2023-05-10T10:52:47.034Z,101510.00
2023-05-10T10:53:49.473Z,101512.03
2023-05-10T10:55:12.742Z,101512.19
2023-05-10T10:56:16.374Z,101513.38
2023-05-10T10:57:20.507Z,101518.13
2023-05-10T10:58:35.406Z,101507.47
2023-05-10T10:59:37.529Z,101520.81
2023-05-10T11:00:41.998Z,101514.75
2023-05-10T11:01:45.513Z,101514.06
2023-05-10T11:02:53.610Z,101515.91
2023-05-10T11:04:01.496Z,101514.06
2023-05-10T11:05:37.353Z,101510.69
2023-05-10T11:06:39.150Z,101515.75
2023-05-10T11:07:53.014Z,101516.09
2023-05-10T11:08:55.709Z,101517.09
2023-05-10T11:10:05.901Z,101515.75
2023-05-10T11:11:08.312Z,101512.03
2023-05-10T11:12:10.341Z,101514.06
2023-05-10T11:13:12.293Z,101514.06
2023-05-10T11:14:14.169Z,101517.78
2023-05-10T11:15:16.858Z,101508.81
2023-05-10T11:16:26.520Z,101505.28
2023-05-10T11:17:30.295Z,101508.66
2023-05-10T11:18:32.165Z,101508.81
2023-05-10T11:19:34.080Z,101499.88
2023-05-10T11:20:41.925Z,101512.53
2023-05-10T11:21:50.955Z,101511.53
2023-05-10T11:22:55.969Z,101505.09
2023-05-10T11:23:59.612Z,101509.69
2023-05-10T11:25:02.239Z,101513.41
2023-05-10T11:26:04.121Z,101511.53
2023-05-10T11:27:06.940Z,101518.97
2023-05-10T11:28:09.011Z,101515.25
2023-05-10T11:29:11.131Z,101513.56
2023-05-10T11:30:13.652Z,101509.84
2023-05-10T11:31:17.221Z,101510.03
2023-05-10T11:32:20.672Z,101509.00
2023-05-10T11:33:22.581Z,101509.84
2023-05-10T11:34:31.348Z,101503.59
2023-05-10T11:35:43.014Z,101507.81
2023-05-10T11:36:52.489Z,101498.88
2023-05-10T11:37:54.301Z,101506.63
2023-05-10T11:38:57.831Z,101501.56
2023-05-10T11:39:59.599Z,101509.69
2023-05-10T11:41:01.452Z,101511.53
2023-05-10T11:42:03.445Z,101489.75
2023-05-10T11:43:06.702Z,101504.78
2023-05-10T11:44:10.499Z,101511.72
2023-05-10T11:45:12.405Z,101508.81
2023-05-10T11:46:14.823Z,101504.44
2023-05-10T11:47:16.697Z,101512.38
2023-05-10T11:48:23.291Z,101503.59
2023-05-10T11:49:27.050Z,101504.28
2023-05-10T11:50:29.258Z,101500.56
2023-05-10T11:51:35.464Z,101499.88
2023-05-10T11:52:38.719Z,101496.84
2023-05-10T11:53:40.686Z,101514.91
2023-05-10T11:54:55.394Z,101512.03
2023-05-10T11:56:10.877Z,101513.41
2023-05-10T11:57:12.708Z,101514.41
2023-05-10T11:58:14.576Z,101509.34
2023-05-10T11:59:16.375Z,101517.44
2023-05-10T12:00:18.373Z,101515.75
2023-05-10T12:01:21.908Z,101511.38
2023-05-10T12:02:24.529Z,101497.34
2023-05-10T12:03:27.117Z,101501.56
2023-05-10T12:04:30.540Z,101499.69
2023-05-10T12:05:36.851Z,101479.59
2023-05-10T12:06:41.978Z,101505.78
2023-05-10T12:07:43.970Z,101507.47
2023-05-10T12:08:48.113Z,101499.53
2023-05-10T12:10:07.234Z,101498.00
2023-05-10T12:11:11.428Z,101500.88
2023-05-10T12:12:19.392Z,101498.19
2023-05-10T12:13:22.166Z,101505.44
2023-05-10T12:14:25.456Z,101486.88
2023-05-10T12:15:29.053Z,101502.06